Time;durP1;ratioP1;P1;durP2;ratioP2;P2;SDS_P1;SDS_P2;PMS_P1;PMS_P2;Temp;Humidity;BMP_temperature;BMP_pressure;BME280_temperature;BME280_humidity;BME280_pressure;Samples;Min_cycle;Max_cycle;Signal;HPM_P1;HPM_P2
2022/11/10 00:02:17;;;;;;;32.40;22.63;;;;;;;11.47;57.23;101861.47;4972183;28;20426;-78
2022/11/10 00:04:42;;;;;;;32.30;22.10;;;;;;;11.35;57.89;101859.16;4964253;28;20466;-78
2022/11/10 00:07:08;;;;;;;28.50;20.23;;;;;;;11.25;57.94;101870.66;4970547;28;20398;-79
2022/11/10 00:09:33;;;;;;;30.50;21.40;;;;;;;11.07;58.34;101883.00;4973307;28;20387;-78
2022/11/10 00:11:59;;;;;;;31.15;21.38;;;;;;;10.86;58.91;101870.78;4972152;28;20875;-79
2022/11/10 00:17:10;;;;;;;32.50;21.23;;;;;;;10.54;59.39;101880.88;4970190;28;20466;-78
2022/11/10 00:19:35;;;;;;;29.02;21.05;;;;;;;10.24;59.52;101886.16;4970390;28;20439;-78
2022/11/10 00:22:01;;;;;;;33.10;21.57;;;;;;;10.24;59.69;101886.16;4966126;28;20401;-78
2022/11/10 00:24:27;;;;;;;31.60;20.83;;;;;;;10.11;59.56;101873.16;4936313;28;1903718;-79
2022/11/10 00:26:54;;;;;;;32.72;21.95;;;;;;;10.05;59.89;101881.69;4973621;28;20431;-78
2022/11/10 00:29:20;;;;;;;32.10;20.92;;;;;;;10.12;60.01;101880.16;4974836;28;20391;-78
2022/11/10 00:31:46;;;;;;;30.80;20.30;;;;;;;10.14;59.70;101888.81;4974395;28;20477;-78
2022/11/10 00:34:14;;;;;;;28.20;20.63;;;;;;;10.08;60.11;101877.91;4974145;28;20880;-78
2022/11/10 00:36:41;;;;;;;31.00;20.20;;;;;;;10.10;59.77;101876.81;4973391;28;20402;-79
2022/11/10 00:39:07;;;;;;;29.08;20.50;;;;;;;9.99;59.98;101878.75;4974474;28;20411;-79
2022/11/10 00:41:32;;;;;;;29.48;20.95;;;;;;;9.87;60.01;101880.69;4974738;28;20383;-79
2022/11/10 00:43:58;;;;;;;33.13;20.55;;;;;;;9.74;60.94;101879.13;4974327;28;20398;-79
2022/11/10 00:46:24;;;;;;;31.67;20.52;;;;;;;9.79;60.57;101881.34;4974900;28;20474;-79
2022/11/10 00:48:50;;;;;;;28.55;20.88;;;;;;;9.79;60.81;101881.34;4974600;28;20454;-79
2022/11/10 00:51:27;;;;;;;29.53;20.13;;;;;;;9.76;60.82;101887.75;4973431;28;20455;-80
2022/11/10 00:53:53;;;;;;;30.53;21.13;;;;;;;9.79;60.68;101885.81;4973154;28;20447;-79
2022/11/10 00:56:20;;;;;;;30.83;20.70;;;;;;;9.77;60.98;101891.25;4973461;28;20395;-79
2022/11/10 00:58:45;;;;;;;29.20;19.85;;;;;;;9.69;60.84;101883.16;4970419;28;20467;-79
2022/11/10 01:01:12;;;;;;;29.75;20.70;;;;;;;9.60;60.86;101882.16;4973862;28;20455;-79
2022/11/10 01:03:38;;;;;;;30.08;20.00;;;;;;;9.57;61.33;101879.75;4974091;28;20395;-78
2022/11/10 01:06:06;;;;;;;28.42;19.92;;;;;;;9.66;61.10;101880.78;4974023;28;20423;-79
2022/11/10 01:08:31;;;;;;;26.55;19.00;;;;;;;9.74;60.42;101875.63;4967288;28;20394;-79
2022/11/10 01:11:04;;;;;;;30.23;19.93;;;;;;;9.75;60.13;101872.00;4974663;28;20408;-79
2022/11/10 01:13:30;;;;;;;27.15;19.67;;;;;;;9.63;60.91;101876.56;4968018;28;20395;-79
2022/11/10 01:15:56;;;;;;;26.73;19.27;;;;;;;9.56;61.21;101868.34;4973046;28;20475;-78
2022/11/10 01:18:21;;;;;;;25.13;19.13;;;;;;;9.44;61.66;101874.72;4973426;28;20436;-79
2022/11/10 01:20:51;;;;;;;26.57;18.90;;;;;;;9.42;61.78;101871.38;4970703;28;20395;-78
2022/11/10 01:23:17;;;;;;;26.30;19.75;;;;;;;9.50;61.18;101878.63;4974047;28;20974;-78
2022/11/10 01:25:42;;;;;;;28.13;19.77;;;;;;;9.59;61.10;101871.69;4975154;28;20419;-79
2022/11/10 01:28:08;;;;;;;27.17;19.87;;;;;;;9.69;60.74;101870.75;5005262;28;20809;-79
2022/11/10 01:30:33;;;;;;;27.07;20.20;;;;;;;9.66;60.35;101868.34;4974237;28;20396;-79
2022/11/10 01:32:59;;;;;;;25.98;19.88;;;;;;;9.66;60.20;101867.53;4974774;28;20399;-79
2022/11/10 01:35:24;;;;;;;25.70;19.17;;;;;;;9.61;60.40;101867.91;4973533;28;20395;-79
2022/11/10 01:37:53;;;;;;;28.70;19.60;;;;;;;9.52;60.46;101866.91;4973506;28;20399;-78
2022/11/10 01:40:19;;;;;;;27.05;19.35;;;;;;;9.54;60.62;101870.28;4973225;28;20391;-79
2022/11/10 01:42:50;;;;;;;25.40;18.23;;;;;;;9.52;61.22;101869.56;5005247;28;20387;-78
2022/11/10 01:45:21;;;;;;;27.83;19.13;;;;;;;9.52;60.45;101874.03;4971509;28;20392;-78
2022/11/10 01:47:49;;;;;;;27.90;18.55;;;;;;;9.49;60.81;101872.50;4973222;28;20793;-79
2022/11/10 01:50:15;;;;;;;25.53;19.40;;;;;;;9.41;60.50;101866.19;4973272;28;20877;-80
2022/11/10 01:52:45;;;;;;;26.17;19.02;;;;;;;9.27;60.77;101870.88;4974074;28;20420;-79
2022/11/10 01:55:12;;;;;;;28.83;19.48;;;;;;;9.26;61.42;101871.03;4973001;28;20404;-78
2022/11/10 01:57:39;;;;;;;26.48;18.67;;;;;;;9.18;60.99;101864.59;4974794;28;20395;-78
2022/11/10 02:00:05;;;;;;;25.98;18.80;;;;;;;9.10;61.49;101874.97;4974390;28;20730;-79
2022/11/10 02:02:38;;;;;;;25.73;18.85;;;;;;;9.09;61.34;101875.09;4974855;28;20392;-78
2022/11/10 02:05:04;;;;;;;25.70;18.47;;;;;;;9.06;61.20;101868.28;4974193;28;20410;-79
2022/11/10 02:07:30;;;;;;;26.67;19.67;;;;;;;9.07;60.94;101875.22;4967332;28;20753;-78
2022/11/10 02:09:56;;;;;;;25.48;18.55;;;;;;;9.05;61.17;101871.88;4974466;28;20402;-79
2022/11/10 02:12:35;;;;;;;25.03;18.33;;;;;;;9.12;60.56;101874.84;4973199;28;20486;-79
2022/11/10 02:15:06;;;;;;;24.60;19.53;;;;;;;9.12;60.59;101874.84;4973619;28;20414;-79
2022/11/10 02:17:32;;;;;;;24.25;19.00;;;;;;;9.22;59.78;101882.81;4972900;28;20406;-79
2022/11/10 02:20:03;;;;;;;29.27;19.00;;;;;;;9.13;60.26;101881.81;4973494;28;20395;-79
2022/11/10 02:22:29;;;;;;;24.73;18.58;;;;;;;9.10;60.45;101888.19;4972644;28;20398;-79
2022/11/10 02:24:55;;;;;;;24.60;18.98;;;;;;;8.99;60.83;101883.00;4973682;28;20903;-80
2022/11/10 02:27:21;;;;;;;22.95;18.30;;;;;;;8.97;60.68;101890.22;4973774;28;20417;-79
2022/11/10 02:29:46;;;;;;;24.57;17.93;;;;;;;8.90;60.65;101883.78;4972603;28;20494;-79
2022/11/10 02:32:12;;;;;;;24.07;18.10;;;;;;;8.73;61.02;101891.34;4972519;28;20904;-79
2022/11/10 02:34:37;;;;;;;28.90;21.23;;;;;;;8.75;61.02;101892.03;4974379;28;20407;-79
2022/11/10 02:37:03;;;;;;;25.30;19.10;;;;;;;8.75;61.02;101891.19;4974084;28;20388;-78
2022/11/10 02:39:29;;;;;;;24.40;18.13;;;;;;;8.84;61.11;101892.22;4973370;28;20867;-78
2022/11/10 02:41:54;;;;;;;23.40;18.17;;;;;;;8.86;60.56;101888.50;4973827;28;20484;-79
2022/11/10 02:44:20;;;;;;;24.20;17.90;;;;;;;8.97;60.04;101885.78;4973449;28;20431;-79
2022/11/10 02:46:46;;;;;;;22.67;17.45;;;;;;;9.04;59.85;101888.75;4973310;28;20489;-78
2022/11/10 02:49:11;;;;;;;23.55;18.02;;;;;;;9.01;60.23;101894.28;4973578;28;20439;-79
2022/11/10 02:51:37;;;;;;;23.33;17.77;;;;;;;8.87;60.53;101886.69;4969666;28;20416;-79
2022/11/10 02:54:02;;;;;;;24.73;18.20;;;;;;;8.83;60.86;101891.38;4972349;28;20481;-78
2022/11/10 02:56:28;;;;;;;26.45;17.98;;;;;;;8.79;60.60;101896.09;4972620;28;20403;-79
2022/11/10 02:58:53;;;;;;;23.70;18.07;;;;;;;8.79;60.22;101887.34;4973925;28;20819;-78
2022/11/10 03:01:19;;;;;;;25.67;18.20;;;;;;;8.86;60.06;101892.94;4972912;28;20399;-78
2022/11/10 03:03:44;;;;;;;23.60;18.35;;;;;;;8.91;60.20;101893.38;4974051;28;20399;-79
2022/11/10 03:06:09;;;;;;;24.60;18.00;;;;;;;8.91;60.47;101896.88;4973011;28;20395;-78
2022/11/10 03:08:35;;;;;;;24.42;18.20;;;;;;;8.93;60.42;101894.09;4973427;28;20729;-79
2022/11/10 03:11:00;;;;;;;28.07;17.83;;;;;;;8.89;59.95;101900.59;4972480;28;20422;-78
2022/11/10 03:13:26;;;;;;;22.97;17.67;;;;;;;8.79;60.27;101898.75;4973636;28;20434;-79
2022/11/10 03:15:52;;;;;;;25.67;18.15;;;;;;;8.68;60.35;101896.16;4973807;28;20440;-79
2022/11/10 03:18:17;;;;;;;23.67;17.75;;;;;;;8.69;60.29;101900.47;4976296;28;20406;-78
2022/11/10 03:20:46;;;;;;;23.60;17.33;;;;;;;8.60;60.91;101899.44;4992103;28;20399;-78
2022/11/10 03:23:12;;;;;;;23.00;17.10;;;;;;;8.46;61.33;101901.53;4971909;28;20471;-78
2022/11/10 03:25:37;;;;;;;22.03;16.77;;;;;;;8.31;61.53;101903.63;4977311;28;20469;-79
2022/11/10 03:28:03;;;;;;;24.75;17.45;;;;;;;8.36;61.17;101906.72;4977692;28;20870;-78
2022/11/10 03:30:28;;;;;;;22.85;16.95;;;;;;;8.45;61.00;101902.53;4971401;28;20454;-79
2022/11/10 03:32:54;;;;;;;24.38;16.58;;;;;;;8.47;60.71;101904.06;5009036;28;20403;-78
2022/11/10 03:35:20;;;;;;;23.43;17.33;;;;;;;8.49;60.49;101915.34;4977473;28;20430;-79
2022/11/10 03:37:45;;;;;;;24.10;17.25;;;;;;;8.52;60.99;101912.47;4977812;28;20402;-78
2022/11/10 03:40:11;;;;;;;23.27;16.53;;;;;;;8.50;60.95;101906.47;4978157;28;20399;-78
2022/11/10 03:42:41;;;;;;;21.73;16.38;;;;;;;8.46;60.60;101909.47;4976845;28;20399;-78
2022/11/10 03:45:07;;;;;;;22.15;15.95;;;;;;;8.44;60.39;101906.97;4976152;28;20418;-78
2022/11/10 03:47:33;;;;;;;21.43;17.30;;;;;;;8.44;60.85;101914.06;4975595;28;20400;-78
2022/11/10 03:49:58;;;;;;;23.43;16.87;;;;;;;8.37;60.91;101919.81;4975471;28;20486;-78
2022/11/10 03:52:24;;;;;;;22.13;16.38;;;;;;;8.33;60.82;101923.66;4974760;28;20427;-79
2022/11/10 03:54:49;;;;;;;21.90;17.27;;;;;;;8.30;60.86;101920.44;4974789;28;20446;-77
2022/11/10 03:57:15;;;;;;;22.13;16.23;;;;;;;8.33;60.80;101917.53;4981855;28;20395;-79
2022/11/10 03:59:42;;;;;;;23.00;16.83;;;;;;;8.38;60.24;101918.00;4981191;28;20477;-78
2022/11/10 04:02:08;;;;;;;23.83;17.15;;;;;;;8.33;60.53;101917.53;4984635;28;20390;-79
2022/11/10 04:10:02;;;;;;;24.58;17.30;;;;;;;8.48;60.04;101913.69;4982955;28;20406;-78
2022/11/10 04:18:19;;;;;;;22.27;16.65;;;;;;;8.37;60.68;101919.81;4986523;28;20402;-79
2022/11/10 04:20:45;;;;;;;21.70;17.25;;;;;;;8.40;60.41;101921.38;4982216;28;20392;-79
2022/11/10 04:23:26;;;;;;;24.23;17.93;;;;;;;8.41;60.54;101923.06;4985697;28;20775;-79
2022/11/10 04:26:28;;;;;;;24.23;18.33;;;;;;;8.44;60.08;101919.34;5008769;28;20409;-79
2022/11/10 04:28:56;;;;;;;21.45;16.92;;;;;;;8.45;59.87;101926.31;4981121;28;20487;-79
2022/11/10 04:31:24;;;;;;;25.25;18.27;;;;;;;8.42;60.14;101927.38;4983989;28;20910;-79
2022/11/10 04:33:50;;;;;;;23.65;17.38;;;;;;;8.47;60.37;101927.84;4985906;28;21116;-80
2022/11/10 04:36:18;;;;;;;24.90;17.92;;;;;;;8.42;60.20;101924.75;4985377;28;20406;-79
2022/11/10 04:38:44;;;;;;;24.33;17.95;;;;;;;8.40;60.83;101930.13;5015809;28;20427;-80
2022/11/10 04:41:10;;;;;;;25.00;18.00;;;;;;;8.46;60.61;101934.09;4983224;28;20394;-80
2022/11/10 04:43:36;;;;;;;27.73;20.00;;;;;;;8.41;60.79;101928.34;4983781;28;20562;-79
2022/11/10 04:46:02;;;;;;;24.30;18.02;;;;;;;8.35;60.68;101932.28;4983440;28;20455;-80
2022/11/10 04:48:30;;;;;;;24.45;18.13;;;;;;;8.35;60.34;101929.66;4984727;28;20408;-80
2022/11/10 04:50:57;;;;;;;25.60;17.67;;;;;;;8.44;60.26;101929.91;5016272;28;20399;-80
2022/11/10 04:53:24;;;;;;;26.88;18.02;;;;;;;8.51;59.95;101934.56;4983071;28;20450;-79
2022/11/10 04:55:50;;;;;;;24.92;18.30;;;;;;;8.42;60.01;101937.97;5018243;28;20407;-79
2022/11/10 04:58:15;;;;;;;25.98;17.30;;;;;;;8.40;60.38;101937.22;5015115;28;20403;-78
2022/11/10 05:00:41;;;;;;;25.20;17.33;;;;;;;8.31;60.43;101927.41;4986986;28;20389;-79
2022/11/10 05:03:09;;;;;;;22.77;17.33;;;;;;;8.34;60.19;101948.28;5026175;28;20474;-79
2022/11/10 05:05:35;;;;;;;22.85;17.25;;;;;;;8.30;60.40;101936.28;4984195;28;20384;-79
2022/11/10 05:08:04;;;;;;;22.35;17.13;;;;;;;8.26;60.55;101946.25;4986175;28;20391;-79
2022/11/10 05:10:31;;;;;;;25.47;18.43;;;;;;;8.29;60.32;101953.94;5012525;28;20409;-79
2022/11/10 05:12:57;;;;;;;23.70;17.67;;;;;;;8.20;60.52;101952.88;4977617;28;20407;-80
2022/11/10 05:15:30;;;;;;;25.13;17.35;;;;;;;8.20;60.56;101954.69;4972519;28;20739;-80
2022/11/10 05:17:56;;;;;;;24.13;17.53;;;;;;;8.11;60.71;101958.06;4985230;28;20494;-78
2022/11/10 05:20:23;;;;;;;25.60;18.02;;;;;;;8.08;60.91;101958.31;4977117;28;20405;-80
2022/11/10 05:25:37;;;;;;;23.25;17.63;;;;;;;8.33;59.99;101960.66;4997519;28;20431;-79
2022/11/10 05:28:04;;;;;;;28.05;18.30;;;;;;;8.47;59.81;101956.09;4986265;28;20494;-80
2022/11/10 05:30:30;;;;;;;26.35;19.40;;;;;;;8.43;59.57;101963.44;4986454;28;20387;-80
2022/11/10 05:32:56;;;;;;;28.08;22.67;;;;;;;8.47;59.62;101970.13;4983423;28;20447;-80
2022/11/10 05:35:22;;;;;;;25.48;18.58;;;;;;;8.30;60.00;101967.97;4980575;28;20393;-78
2022/11/10 05:37:47;;;;;;;24.67;18.23;;;;;;;8.11;60.77;101985.31;4983486;28;20490;-80
2022/11/10 05:40:13;;;;;;;27.75;18.23;;;;;;;8.07;61.76;101977.75;4976822;28;20455;-80
2022/11/10 05:42:46;;;;;;;24.23;18.35;;;;;;;8.15;61.16;101992.03;4979984;28;20517;-80
2022/11/10 05:45:12;;;;;;;24.48;17.73;;;;;;;8.13;61.31;101990.47;4977296;28;20969;-80
2022/11/10 05:47:39;;;;;;;23.67;17.00;;;;;;;8.08;61.31;101996.13;4994656;28;20393;-80
2022/11/10 05:50:06;;;;;;;22.95;16.80;;;;;;;7.99;61.80;101992.41;4978443;28;20420;-80
2022/11/10 05:52:32;;;;;;;22.83;17.45;;;;;;;7.98;61.95;102000.47;4977948;28;20419;-81
2022/11/10 05:54:57;;;;;;;24.65;18.08;;;;;;;8.02;61.83;101999.25;5013491;28;20406;-79
2022/11/10 05:57:23;;;;;;;23.60;17.27;;;;;;;8.11;61.56;102005.63;4976032;28;20738;-80
2022/11/10 05:59:49;;;;;;;23.17;17.23;;;;;;;8.17;61.66;102003.31;4966884;28;20471;-81
2022/11/10 06:02:15;;;;;;;25.23;17.88;;;;;;;8.19;61.46;102011.97;4986183;28;20399;-79
2022/11/10 06:04:41;;;;;;;23.70;17.17;;;;;;;8.15;61.12;102005.22;4974641;28;20401;-79
2022/11/10 06:07:07;;;;;;;25.75;17.25;;;;;;;8.07;61.60;102006.78;4978073;28;20962;-80
2022/11/10 06:09:33;;;;;;;24.20;18.03;;;;;;;8.10;61.95;102007.41;4985429;28;20862;-80
2022/11/10 06:12:02;;;;;;;22.90;17.00;;;;;;;8.07;61.93;102015.59;5017325;28;20470;-81
2022/11/10 06:14:28;;;;;;;23.02;17.35;;;;;;;8.13;61.92;102007.16;4988144;28;20380;-80
2022/11/10 06:16:53;;;;;;;24.75;17.20;;;;;;;8.20;62.20;102021.56;5000737;28;20413;-80
2022/11/10 06:19:18;;;;;;;22.58;17.77;;;;;;;8.20;62.58;102031.28;4975363;28;20419;-80
2022/11/10 06:21:44;;;;;;;21.63;16.40;;;;;;;8.24;62.76;102024.78;4985056;28;20395;-80
2022/11/10 06:24:10;;;;;;;23.50;17.67;;;;;;;8.42;62.27;102027.78;5017005;28;20431;-79
2022/11/10 06:26:35;;;;;;;23.88;17.83;;;;;;;8.48;61.80;102037.91;5014558;28;20395;-79
2022/11/10 06:29:01;;;;;;;26.50;18.70;;;;;;;8.59;61.69;102042.31;4983469;28;20458;-79
2022/11/10 06:31:27;;;;;;;20.95;17.60;;;;;;;8.64;61.84;102039.28;5001851;28;20411;-78
2022/11/10 06:33:53;;;;;;;22.90;17.10;;;;;;;8.71;61.67;102045.75;4984668;28;20391;-79
2022/11/10 06:36:18;;;;;;;21.33;17.13;;;;;;;8.73;61.64;102044.66;4984948;28;20494;-79
2022/11/10 06:38:44;;;;;;;21.60;16.70;;;;;;;8.89;60.90;102043.41;4986200;28;20394;-79
2022/11/10 06:41:09;;;;;;;22.08;17.05;;;;;;;8.88;61.66;102049.66;4967391;28;20384;-80
2022/11/10 06:43:35;;;;;;;22.02;16.90;;;;;;;8.85;61.63;102053.38;5013654;28;20380;-81
2022/11/10 06:46:02;;;;;;;23.00;16.77;;;;;;;8.84;61.49;102057.03;4981972;28;20391;-80
2022/11/10 06:48:28;;;;;;;23.08;17.63;;;;;;;8.86;62.03;102057.72;4968792;28;20410;-80
2022/11/10 06:50:53;;;;;;;21.83;18.08;;;;;;;9.00;61.65;102059.22;5015246;28;20388;-82
2022/11/10 06:53:19;;;;;;;22.47;18.13;;;;;;;9.14;61.59;102056.28;4980501;28;20415;-80
2022/11/10 06:55:44;;;;;;;24.70;19.10;;;;;;;9.30;61.17;102053.19;4989946;28;20395;-80
2022/11/10 06:58:10;;;;;;;23.17;17.70;;;;;;;9.40;61.01;102060.34;5007696;28;20387;-79
2022/11/10 07:00:36;;;;;;;22.50;17.33;;;;;;;9.55;60.53;102059.91;4985242;28;20387;-79
2022/11/10 07:03:06;;;;;;;22.83;17.57;;;;;;;9.66;60.78;102061.63;4954612;28;20411;-81
2022/11/10 07:05:33;;;;;;;23.05;18.20;;;;;;;9.79;60.16;102066.72;5010540;28;20397;-80
2022/11/10 07:08:15;;;;;;;25.92;19.33;;;;;;;9.75;60.27;102065.31;5007392;28;20385;-80
2022/11/10 07:10:56;;;;;;;27.20;20.05;;;;;;;9.82;60.94;102063.81;5008726;28;20406;-80
2022/11/10 07:13:22;;;;;;;28.88;22.15;;;;;;;9.98;60.63;102065.16;5010107;28;20424;-79
2022/11/10 07:15:48;;;;;;;27.83;23.92;;;;;;;10.14;60.18;102074.28;5012563;28;20405;-79
2022/11/10 07:18:14;;;;;;;27.00;21.13;;;;;;;10.04;60.16;102072.56;5007284;28;20398;-80
2022/11/10 07:20:39;;;;;;;23.20;18.40;;;;;;;9.97;60.59;102074.06;5008912;28;20410;-79
2022/11/10 07:23:06;;;;;;;21.87;17.00;;;;;;;10.04;60.82;102078.69;4991777;28;20425;-79
2022/11/10 07:25:34;;;;;;;20.90;16.70;;;;;;;10.10;60.70;102079.97;4991087;28;20433;-80
2022/11/10 07:28:03;;;;;;;21.08;16.35;;;;;;;10.26;60.72;102085.63;5002999;28;20986;-79
2022/11/10 07:30:30;;;;;;;21.20;16.10;;;;;;;10.33;60.69;102084.16;5012432;28;20466;-82
2022/11/10 07:33:07;;;;;;;20.48;16.75;;;;;;;10.39;60.51;102080.13;5008707;28;20412;-81
2022/11/10 07:35:33;;;;;;;21.67;17.02;;;;;;;10.51;60.52;102084.34;5003972;28;20399;-81
2022/11/10 07:38:05;;;;;;;20.63;17.17;;;;;;;10.55;60.45;102092.00;4984792;28;20765;-79
2022/11/10 07:40:32;;;;;;;20.60;16.63;;;;;;;10.46;60.88;102083.03;4992781;28;20394;-83
2022/11/10 07:43:00;;;;;;;22.75;19.30;;;;;;;10.53;61.13;102092.13;4993776;28;20384;-81
2022/11/10 07:45:26;;;;;;;24.05;18.92;;;;;;;10.68;60.84;102087.31;4992220;28;20394;-81
2022/11/10 07:47:56;;;;;;;24.52;18.58;;;;;;;10.62;61.10;102093.97;4993256;28;20388;-81
2022/11/10 07:50:22;;;;;;;23.13;18.25;;;;;;;10.67;61.03;102085.63;4993935;28;20399;-82
2022/11/10 07:52:47;;;;;;;32.93;29.30;;;;;;;10.81;61.16;102089.69;4991944;28;20418;-82
2022/11/10 07:55:13;;;;;;;27.95;20.08;;;;;;;10.84;61.12;102092.06;4991338;28;20388;-79
2022/11/10 07:57:38;;;;;;;23.40;19.17;;;;;;;10.93;60.74;102085.94;4989454;28;20383;-78
2022/11/10 08:00:04;;;;;;;26.37;20.33;;;;;;;11.03;60.83;102092.06;4989832;28;20982;-80
2022/11/10 08:02:30;;;;;;;41.72;35.55;;;;;;;11.16;60.78;102089.13;4973591;28;20455;-79
2022/11/10 08:04:56;;;;;;;29.48;22.48;;;;;;;11.34;60.54;102080.47;4991912;28;20398;-80
2022/11/10 08:07:21;;;;;;;30.57;21.77;;;;;;;11.38;60.12;102076.56;4975151;28;20490;-81
2022/11/10 08:09:50;;;;;;;29.73;22.57;;;;;;;11.49;60.00;102073.75;4988640;28;20391;-80
2022/11/10 08:12:16;;;;;;;30.48;21.73;;;;;;;11.56;60.12;102074.00;4987095;28;20423;-78
2022/11/10 08:14:42;;;;;;;33.58;23.30;;;;;;;11.64;60.24;102082.09;4979249;28;20478;-79
2022/11/10 08:17:07;;;;;;;31.50;22.83;;;;;;;11.88;59.80;102084.28;4971821;28;20542;-80
2022/11/10 08:19:33;;;;;;;31.52;23.08;;;;;;;11.89;59.64;102077.97;4988574;28;20422;-80
2022/11/10 08:22:00;;;;;;;36.47;24.73;;;;;;;12.01;59.39;102076.84;4979451;28;20424;-80
2022/11/10 08:24:26;;;;;;;39.92;28.55;;;;;;;12.07;59.53;102074.59;4988859;28;20932;-80
2022/11/10 08:26:53;;;;;;;45.88;30.60;;;;;;;12.11;59.93;102075.97;4988941;28;20413;-80
2022/11/10 08:29:19;;;;;;;43.88;28.90;;;;;;;12.20;59.92;102088.38;5006560;28;20390;-79
2022/11/10 08:31:45;;;;;;;41.77;28.10;;;;;;;12.37;59.57;102092.06;4992573;28;20415;-80
2022/11/10 08:34:10;;;;;;;43.20;29.30;;;;;;;12.43;59.59;102089.66;4991623;28;20375;-79
2022/11/10 08:36:36;;;;;;;41.92;28.05;;;;;;;12.51;59.46;102088.91;4990845;28;20383;-80
2022/11/10 08:39:02;;;;;;;40.63;27.88;;;;;;;12.65;59.21;102087.59;4990347;28;20382;-82
2022/11/10 08:41:27;;;;;;;41.33;29.30;;;;;;;12.74;58.99;102091.16;4989232;28;20379;-81
2022/11/10 08:43:53;;;;;;;40.97;27.27;;;;;;;12.70;58.63;102095.94;4986603;28;20380;-79
2022/11/10 08:46:18;;;;;;;39.55;28.00;;;;;;;12.62;58.96;102094.06;4985734;28;20463;-80
2022/11/10 08:48:44;;;;;;;38.57;28.60;;;;;;;12.70;59.23;102095.13;4984755;28;20376;-81
2022/11/10 08:51:10;;;;;;;45.33;29.35;;;;;;;12.78;58.82;102098.72;4988362;28;20486;-81
2022/11/10 08:53:36;;;;;;;40.65;28.13;;;;;;;12.95;58.39;102099.69;4989844;28;20388;-80
2022/11/10 08:56:01;;;;;;;38.13;27.55;;;;;;;13.05;58.10;102098.78;4986711;28;20406;-82
2022/11/10 08:58:27;;;;;;;39.40;26.87;;;;;;;13.14;58.27;102090.75;4988297;28;20729;-80
2022/11/10 09:00:53;;;;;;;36.65;26.02;;;;;;;13.26;58.32;102095.81;4989760;28;20392;-82
2022/11/10 09:03:22;;;;;;;35.33;25.58;;;;;;;13.32;58.42;102103.22;4991249;28;20497;-82
2022/11/10 09:05:50;;;;;;;34.13;25.40;;;;;;;13.34;58.10;102094.09;5003549;28;20388;-80
2022/11/10 09:08:16;;;;;;;26.50;20.83;;;;;;;13.44;57.91;102115.31;5017507;28;20896;-80
2022/11/10 09:10:45;;;;;;;35.28;24.73;;;;;;;13.49;58.06;102106.88;4970939;28;20418;-78
2022/11/10 09:13:12;;;;;;;30.48;23.27;;;;;;;13.47;58.18;102100.81;5004252;28;20408;-79
2022/11/10 09:15:38;;;;;;;30.25;23.58;;;;;;;13.50;58.57;102105.84;5020811;28;20403;-82
2022/11/10 09:18:05;;;;;;;37.25;25.38;;;;;;;13.52;58.27;102112.72;4989267;28;20383;-80
2022/11/10 09:20:32;;;;;;;37.45;26.10;;;;;;;13.61;58.22;102097.59;4987758;28;20388;-80
2022/11/10 09:23:12;;;;;;;33.50;24.77;;;;;;;13.73;58.22;102096.34;4987112;28;20376;-80
2022/11/10 09:25:39;;;;;;;32.50;24.17;;;;;;;13.77;57.76;102096.88;4986125;28;20396;-80
2022/11/10 09:28:12;;;;;;;29.40;22.00;;;;;;;13.85;57.99;102099.59;4984294;28;20431;-81
2022/11/10 09:30:38;;;;;;;38.80;27.08;;;;;;;13.87;57.59;102092.28;4981889;28;20400;-81
2022/11/10 09:33:04;;;;;;;36.60;26.67;;;;;;;13.97;57.63;102100.16;4988732;28;20415;-80
2022/11/10 09:35:31;;;;;;;40.55;28.20;;;;;;;14.02;57.45;102097.84;4982552;28;20478;-80
2022/11/10 09:37:58;;;;;;;41.33;29.40;;;;;;;14.00;57.38;102101.69;4989051;28;20392;-80
2022/11/10 09:40:44;;;;;;;42.60;29.88;;;;;;;14.05;57.19;102094.88;4985773;28;20423;-80
2022/11/10 09:43:17;;;;;;;41.90;28.85;;;;;;;14.10;57.01;102095.25;4978370;28;20431;-80
2022/11/10 09:45:49;;;;;;;42.30;28.33;;;;;;;14.10;57.32;102092.56;4979417;28;20463;-81
2022/11/10 09:48:21;;;;;;;35.47;27.02;;;;;;;14.18;57.02;102097.09;4979474;28;20395;-80
2022/11/10 09:51:07;;;;;;;36.47;27.58;;;;;;;14.29;57.08;102093.31;4982647;28;20397;-80
2022/11/10 09:54:02;;;;;;;41.53;27.15;;;;;;;14.45;56.83;102101.38;4982401;28;20415;-80
2022/11/10 09:56:35;;;;;;;40.47;27.52;;;;;;;14.56;56.63;102102.91;4980980;28;20792;-78
2022/11/10 09:59:15;;;;;;;38.53;29.07;;;;;;;14.59;56.23;102088.47;4970418;28;20458;-79
2022/11/10 10:01:59;;;;;;;34.22;26.60;;;;;;;14.68;56.23;102095.50;4973227;28;20414;-82
2022/11/10 10:04:55;;;;;;;39.47;29.00;;;;;;;14.64;56.17;102083.44;4988820;28;20390;-79
2022/11/10 10:07:41;;;;;;;39.25;28.30;;;;;;;14.79;56.00;102089.84;4977607;28;20383;-79
2022/11/10 10:10:13;;;;;;;42.10;29.25;;;;;;;14.90;55.79;102089.50;4997951;28;20454;-78
2022/11/10 10:13:03;;;;;;;42.03;28.90;;;;;;;14.86;55.52;102085.50;4969037;28;20419;-78
2022/11/10 10:16:06;;;;;;;40.13;28.60;;;;;;;14.71;55.35;102077.31;4983934;28;20375;-80
2022/11/10 10:18:58;;;;;;;39.97;28.75;;;;;;;14.83;55.68;102072.47;4990439;28;20458;-78
2022/11/10 10:21:39;;;;;;;42.88;29.45;;;;;;;14.86;55.12;102066.81;4981654;28;20392;-80
2022/11/10 10:24:14;;;;;;;38.33;29.00;;;;;;;15.01;55.18;102074.16;4981936;28;20450;-78
2022/11/10 10:26:47;;;;;;;40.65;29.17;;;;;;;15.07;54.87;102068.16;4986923;28;20419;-78
2022/11/10 10:29:20;;;;;;;40.28;28.92;;;;;;;15.11;54.74;102064.16;4985334;28;20405;-80
2022/11/10 10:31:51;;;;;;;42.38;29.38;;;;;;;15.25;54.71;102065.31;4972691;28;20562;-80
2022/11/10 10:34:20;;;;;;;47.38;33.03;;;;;;;15.30;54.45;102062.97;4986809;28;20381;-79
2022/11/10 10:36:47;;;;;;;43.53;31.53;;;;;;;15.40;54.57;102063.66;4987279;28;20383;-79
2022/11/10 10:39:23;;;;;;;38.13;28.47;;;;;;;15.44;54.43;102054.28;4986438;28;20388;-78
2022/11/10 10:41:48;;;;;;;39.30;28.80;;;;;;;15.53;54.30;102048.94;4991324;28;20412;-77
2022/11/10 10:44:17;;;;;;;38.90;28.73;;;;;;;15.61;54.09;102049.75;4987518;28;20387;-77
2022/11/10 10:46:54;;;;;;;42.20;29.98;;;;;;;15.71;53.89;102054.91;4989677;28;20876;-79
2022/11/10 10:49:25;;;;;;;38.30;28.48;;;;;;;15.75;53.78;102056.25;4987964;28;20888;-78
2022/11/10 10:52:12;;;;;;;40.63;27.58;;;;;;;15.78;53.46;102041.72;4987572;28;20415;-79
2022/11/10 10:54:38;;;;;;;41.42;27.38;;;;;;;15.81;53.10;102041.34;4988107;28;20390;-81
2022/11/10 10:57:29;;;;;;;38.08;27.73;;;;;;;15.89;53.34;102041.34;5003378;28;20471;-79
2022/11/10 11:00:13;;;;;;;34.25;26.88;;;;;;;15.84;53.65;102039.19;4988121;28;20411;-79
2022/11/10 11:02:39;;;;;;;34.72;25.65;;;;;;;15.88;53.95;102041.50;4977112;28;20406;-79
2022/11/10 11:05:18;;;;;;;37.03;26.95;;;;;;;15.92;53.63;102037.47;4990236;28;20375;-80
2022/11/10 11:07:58;;;;;;;37.55;26.95;;;;;;;15.99;53.44;102041.13;4991937;28;20387;-81
2022/11/10 11:10:31;;;;;;;34.43;24.30;;;;;;;16.03;53.17;102042.47;4984905;28;20384;-78
2022/11/10 11:13:20;;;;;;;30.90;23.33;;;;;;;16.10;53.11;102039.91;4987155;28;20415;-80
2022/11/10 11:16:07;;;;;;;32.67;23.88;;;;;;;16.16;52.58;102041.91;4988712;28;20387;-81
2022/11/10 11:18:38;;;;;;;34.90;25.10;;;;;;;16.24;52.09;102045.38;4986419;28;20428;-80
2022/11/10 11:21:15;;;;;;;35.50;26.13;;;;;;;16.26;52.07;102042.53;4983793;28;20721;-80
2022/11/10 11:24:19;;;;;;;37.60;25.63;;;;;;;16.34;51.87;102038.97;4996241;28;20423;-81
2022/11/10 11:27:02;;;;;;;37.55;26.55;;;;;;;16.36;51.85;102039.63;4986973;28;20387;-81
2022/11/10 11:30:10;;;;;;;35.45;25.23;;;;;;;16.50;51.73;102035.38;4998334;28;20414;-78
2022/11/10 11:32:56;;;;;;;38.05;27.00;;;;;;;16.52;51.74;102033.34;5002725;28;20424;-79
2022/11/10 11:35:32;;;;;;;35.05;25.98;;;;;;;16.61;51.64;102040.31;4987743;28;20967;-83
2022/11/10 11:38:12;;;;;;;34.85;25.73;;;;;;;16.67;51.38;102025.38;4985711;28;20395;-80
2022/11/10 11:40:52;;;;;;;35.00;24.70;;;;;;;16.68;51.43;102037.78;4989005;28;20384;-80